createdAt,value
2019-02-17T00:00:00.747Z,22.03
2019-02-17T00:02:27.059Z,25.97
2019-02-17T00:04:53.260Z,23.73
2019-02-17T00:07:19.480Z,24.77
2019-02-17T00:09:46.012Z,24.87
2019-02-17T00:12:12.312Z,25.17
2019-02-17T00:14:38.539Z,27.80
2019-02-17T00:17:05.059Z,25.40
2019-02-17T00:19:31.267Z,25.63
2019-02-17T00:21:57.590Z,27.57
2019-02-17T00:24:23.816Z,25.13
2019-02-17T00:26:50.027Z,30.83
2019-02-17T00:29:16.283Z,38.60
2019-02-17T00:31:42.519Z,34.30
2019-02-17T00:34:08.724Z,33.07
2019-02-17T00:36:34.973Z,32.43
2019-02-17T00:39:01.221Z,37.60
2019-02-17T00:41:27.560Z,36.97
2019-02-17T00:43:53.863Z,35.83
2019-02-17T00:46:20.080Z,33.83
2019-02-17T00:48:46.326Z,34.73
2019-02-17T00:51:12.500Z,34.20
2019-02-17T00:53:38.725Z,30.17
2019-02-17T00:56:04.932Z,30.77
2019-02-17T00:58:31.295Z,32.90
2019-02-17T01:00:57.557Z,32.13
2019-02-17T01:03:23.884Z,35.17
2019-02-17T01:05:50.075Z,33.73
2019-02-17T01:08:16.349Z,37.50
2019-02-17T01:10:42.551Z,33.77
2019-02-17T01:13:08.791Z,38.20
2019-02-17T01:15:35.008Z,33.93
2019-02-17T01:18:01.223Z,31.90
2019-02-17T01:20:27.546Z,28.13
2019-02-17T01:22:53.814Z,29.93
2019-02-17T01:25:20.343Z,33.50
2019-02-17T01:27:46.652Z,33.13
2019-02-17T01:30:13.374Z,29.73
2019-02-17T01:32:39.792Z,31.17
2019-02-17T01:35:06.349Z,31.43
2019-02-17T01:37:32.865Z,31.60
2019-02-17T01:39:59.059Z,31.57
2019-02-17T01:42:25.367Z,34.20
2019-02-17T01:44:53.454Z,33.80
2019-02-17T01:47:19.795Z,30.87
2019-02-17T01:49:46.055Z,34.60
2019-02-17T01:52:12.363Z,31.83
2019-02-17T01:54:38.577Z,36.33
2019-02-17T01:57:04.793Z,30.40
2019-02-17T01:59:31.099Z,29.40
2019-02-17T02:01:57.468Z,28.77
2019-02-17T02:04:23.707Z,31.70
2019-02-17T02:06:49.902Z,25.07
2019-02-17T02:09:16.108Z,39.40
2019-02-17T02:11:42.348Z,26.00
2019-02-17T02:14:08.609Z,26.80
2019-02-17T02:16:34.885Z,30.17
2019-02-17T02:19:01.176Z,30.60
2019-02-17T02:21:27.392Z,28.27
2019-02-17T02:23:53.583Z,27.37
2019-02-17T02:26:19.853Z,39.30
2019-02-17T02:28:46.062Z,27.50
2019-02-17T02:31:12.403Z,31.47
2019-02-17T02:33:38.704Z,27.37
2019-02-17T02:36:04.914Z,28.03
2019-02-17T02:38:31.120Z,28.90
2019-02-17T02:40:57.443Z,25.63
2019-02-17T02:43:23.666Z,26.93
2019-02-17T02:45:49.992Z,27.50
2019-02-17T02:48:16.191Z,28.77
2019-02-17T02:50:42.412Z,30.83
2019-02-17T02:53:08.615Z,28.10
2019-02-17T02:55:35.034Z,30.77
2019-02-17T02:58:01.218Z,30.60
2019-02-17T03:00:27.508Z,29.30
2019-02-17T03:02:53.723Z,30.07
2019-02-17T03:05:20.027Z,29.70
2019-02-17T03:07:46.262Z,27.50
2019-02-17T03:10:12.473Z,28.80
2019-02-17T03:12:38.683Z,29.50
2019-02-17T03:15:06.591Z,31.17
2019-02-17T03:17:32.890Z,30.97
2019-02-17T03:19:59.099Z,32.20
2019-02-17T03:22:25.489Z,30.20
2019-02-17T03:24:51.703Z,28.40
2019-02-17T03:27:17.911Z,28.60
2019-02-17T03:29:44.133Z,26.80
2019-02-17T03:32:10.350Z,31.40
2019-02-17T03:34:36.565Z,25.63
2019-02-17T03:37:02.880Z,29.00
2019-02-17T03:39:29.279Z,22.63
2019-02-17T03:41:55.672Z,26.73
2019-02-17T03:44:21.868Z,28.30
2019-02-17T03:46:48.070Z,27.70
2019-02-17T03:49:14.259Z,26.07
2019-02-17T03:51:40.483Z,26.67
2019-02-17T03:54:06.711Z,30.40
2019-02-17T03:56:33.026Z,25.60
2019-02-17T03:58:59.340Z,30.77
2019-02-17T04:01:25.658Z,21.50
2019-02-17T04:03:51.934Z,21.93
2019-02-17T04:06:18.136Z,23.50
2019-02-17T04:08:44.369Z,23.73
2019-02-17T04:11:10.592Z,28.60
2019-02-17T04:13:36.795Z,25.50
2019-02-17T04:16:03.002Z,24.97
2019-02-17T04:18:29.198Z,28.10
2019-02-17T04:20:55.434Z,25.07
2019-02-17T04:23:30.772Z,24.83
2019-02-17T04:25:49.719Z,27.53
2019-02-17T04:28:15.913Z,23.13
2019-02-17T04:30:42.151Z,25.13
2019-02-17T04:33:08.345Z,23.53
2019-02-17T04:35:34.555Z,21.87
2019-02-17T04:38:00.758Z,23.00
2019-02-17T04:40:26.952Z,27.40
2019-02-17T04:42:53.164Z,25.10
2019-02-17T04:45:19.363Z,30.17
2019-02-17T04:47:45.659Z,25.30
2019-02-17T04:50:12.077Z,26.10
2019-02-17T04:52:38.412Z,23.80
2019-02-17T04:55:06.136Z,24.70
2019-02-17T04:57:32.352Z,25.47
2019-02-17T04:59:58.670Z,23.63
2019-02-17T05:02:24.969Z,24.30
2019-02-17T05:04:51.154Z,24.23
2019-02-17T05:07:17.380Z,24.07
2019-02-17T05:09:43.584Z,23.20
2019-02-17T05:12:09.775Z,24.80
2019-02-17T05:14:35.980Z,26.20
2019-02-17T05:17:02.182Z,27.53
2019-02-17T05:19:28.391Z,24.03
2019-02-17T05:21:54.600Z,26.73
2019-02-17T05:24:21.008Z,29.57
2019-02-17T05:26:47.200Z,29.47
2019-02-17T05:29:13.404Z,26.33
2019-02-17T05:31:39.637Z,26.03
2019-02-17T05:34:05.859Z,28.00
2019-02-17T05:36:32.083Z,25.67
2019-02-17T05:38:58.377Z,27.63
2019-02-17T05:41:24.600Z,23.67
2019-02-17T05:43:50.814Z,23.07
2019-02-17T05:46:17.120Z,26.23
2019-02-17T05:48:43.331Z,24.90
2019-02-17T05:51:09.511Z,24.10
2019-02-17T05:53:35.744Z,23.87
2019-02-17T05:56:02.052Z,28.13
2019-02-17T05:58:28.361Z,27.43
2019-02-17T06:01:03.347Z,23.30
2019-02-17T06:03:22.692Z,30.10
2019-02-17T06:05:48.978Z,26.00
2019-02-17T06:08:15.168Z,25.23
2019-02-17T06:10:41.375Z,26.03
2019-02-17T06:13:07.600Z,25.37
2019-02-17T06:15:33.820Z,24.00
2019-02-17T06:18:00.019Z,24.57
2019-02-17T06:20:26.230Z,23.03
2019-02-17T06:22:52.479Z,22.90
2019-02-17T06:25:18.690Z,23.97
2019-02-17T06:27:44.894Z,25.93
2019-02-17T06:30:11.232Z,22.00
2019-02-17T06:32:37.430Z,25.53
2019-02-17T06:35:04.167Z,23.37
2019-02-17T06:37:30.451Z,23.60
2019-02-17T06:39:56.814Z,24.50
2019-02-17T06:42:23.183Z,24.00
2019-02-17T06:44:49.488Z,23.30
2019-02-17T06:47:17.599Z,22.20
2019-02-17T06:49:43.919Z,25.00
2019-02-17T06:52:10.142Z,27.63
2019-02-17T06:54:37.262Z,23.20
2019-02-17T06:57:05.383Z,24.47
2019-02-17T06:59:31.595Z,24.73
2019-02-17T07:01:57.967Z,25.60
2019-02-17T07:04:26.143Z,22.10
2019-02-17T07:06:54.261Z,23.37
2019-02-17T07:09:20.565Z,23.30
2019-02-17T07:11:46.800Z,20.20
2019-02-17T07:14:12.986Z,24.50
2019-02-17T07:16:39.230Z,25.80
2019-02-17T07:19:05.539Z,24.30
2019-02-17T07:21:31.757Z,26.97
2019-02-17T07:23:57.973Z,26.83
2019-02-17T07:26:24.347Z,25.40
2019-02-17T07:28:50.728Z,25.47
2019-02-17T07:31:16.951Z,30.43
2019-02-17T07:33:43.179Z,30.20
2019-02-17T07:36:09.494Z,26.17
2019-02-17T07:38:35.712Z,30.47
2019-02-17T07:41:01.911Z,27.37
2019-02-17T07:43:28.222Z,27.57
2019-02-17T07:45:54.561Z,32.60
2019-02-17T07:48:20.796Z,50.37
2019-02-17T07:50:47.011Z,43.97
2019-02-17T07:53:13.253Z,39.17
2019-02-17T07:55:39.628Z,35.70
2019-02-17T07:58:06.095Z,39.70
2019-02-17T08:00:32.415Z,37.67
2019-02-17T08:02:58.615Z,38.40
2019-02-17T08:05:24.886Z,32.70
2019-02-17T08:07:51.307Z,36.33
2019-02-17T08:10:17.749Z,39.60
2019-02-17T08:12:44.055Z,40.87
2019-02-17T08:15:10.387Z,38.33
2019-02-17T08:17:36.590Z,46.63
2019-02-17T08:20:05.306Z,37.07
2019-02-17T08:22:31.651Z,36.43
2019-02-17T08:24:57.967Z,34.80
2019-02-17T08:27:24.166Z,34.13
2019-02-17T08:29:53.437Z,30.00
2019-02-17T08:32:19.763Z,35.50
2019-02-17T08:34:48.785Z,29.20
2019-02-17T08:37:15.052Z,31.83
2019-02-17T08:39:41.263Z,30.50
2019-02-17T08:42:07.694Z,33.47
2019-02-17T08:44:33.915Z,31.07
2019-02-17T08:47:00.242Z,31.47
2019-02-17T08:49:27.628Z,29.67
2019-02-17T08:51:53.956Z,26.97
2019-02-17T08:54:20.191Z,31.47
2019-02-17T08:56:46.387Z,27.70
2019-02-17T08:59:12.638Z,28.03
2019-02-17T09:01:40.450Z,26.57
2019-02-17T09:04:06.762Z,24.37
2019-02-17T09:06:32.996Z,28.27
2019-02-17T09:08:59.202Z,26.03
2019-02-17T09:11:25.486Z,28.60
2019-02-17T09:13:51.752Z,26.13
2019-02-17T09:16:18.319Z,26.90
2019-02-17T09:18:44.573Z,24.73
2019-02-17T09:21:10.805Z,23.17
2019-02-17T09:23:37.056Z,21.80
2019-02-17T09:26:03.338Z,25.67
2019-02-17T09:28:29.561Z,22.17
2019-02-17T09:30:55.946Z,26.57
2019-02-17T09:33:22.240Z,26.63
2019-02-17T09:35:48.473Z,29.53
2019-02-17T09:38:17.058Z,26.20
2019-02-17T09:40:42.855Z,26.07
2019-02-17T09:43:09.158Z,26.20
2019-02-17T09:45:35.459Z,32.37
2019-02-17T09:48:01.831Z,22.70
2019-02-17T09:50:28.075Z,23.47
2019-02-17T09:52:54.283Z,21.57
2019-02-17T09:55:20.526Z,21.93
2019-02-17T09:57:46.940Z,23.10
2019-02-17T10:00:14.330Z,21.63
2019-02-17T10:02:40.835Z,20.50
2019-02-17T10:05:08.960Z,24.07
2019-02-17T10:07:35.151Z,21.37
2019-02-17T10:10:01.592Z,19.37
2019-02-17T10:12:27.875Z,20.43
2019-02-17T10:14:54.253Z,21.40
2019-02-17T10:17:20.475Z,21.30
2019-02-17T10:19:46.790Z,21.00
2019-02-17T10:22:13.200Z,19.80
2019-02-17T10:24:39.446Z,20.53
2019-02-17T10:27:05.796Z,21.50
2019-02-17T10:29:31.991Z,19.40
2019-02-17T10:31:58.434Z,31.60
2019-02-17T10:34:24.775Z,22.50
2019-02-17T10:36:51.092Z,20.77
2019-02-17T10:39:17.361Z,20.37
2019-02-17T10:41:43.689Z,22.30
2019-02-17T10:44:10.312Z,20.23
2019-02-17T10:46:36.531Z,22.63
2019-02-17T10:49:02.948Z,24.60
2019-02-17T10:51:29.208Z,19.70
2019-02-17T10:53:55.550Z,22.07
2019-02-17T10:56:21.890Z,22.40
2019-02-17T10:58:48.206Z,19.70
2019-02-17T11:01:14.571Z,21.20
2019-02-17T11:03:44.583Z,23.23
2019-02-17T11:06:10.842Z,20.73
2019-02-17T11:08:37.361Z,20.10
2019-02-17T11:11:03.727Z,20.57
2019-02-17T11:13:30.236Z,20.20
2019-02-17T11:15:56.449Z,23.33
2019-02-17T11:18:22.774Z,21.83
2019-02-17T11:20:48.984Z,21.10
2019-02-17T11:23:15.280Z,19.97
2019-02-17T11:25:41.533Z,19.30
2019-02-17T11:28:07.915Z,19.40
2019-02-17T11:30:34.356Z,19.40
2019-02-17T11:33:00.690Z,19.20
2019-02-17T11:35:26.912Z,24.67
2019-02-17T11:37:53.216Z,18.27
2019-02-17T11:40:19.528Z,18.43
2019-02-17T11:42:45.802Z,17.83
2019-02-17T11:45:16.616Z,18.97
2019-02-17T11:47:42.922Z,18.53
2019-02-17T11:50:09.376Z,17.60
2019-02-17T11:52:35.695Z,17.70
2019-02-17T11:55:04.313Z,15.17
2019-02-17T11:57:30.570Z,15.70
2019-02-17T11:59:56.865Z,16.77
2019-02-17T12:02:25.321Z,13.00
2019-02-17T12:04:51.405Z,12.83
2019-02-17T12:07:17.596Z,11.63
2019-02-17T12:09:43.845Z,15.63
2019-02-17T12:12:10.063Z,11.73
2019-02-17T12:14:36.263Z,12.70
2019-02-17T12:17:02.684Z,11.37
2019-02-17T12:19:29.076Z,11.37
2019-02-17T12:22:00.168Z,12.37
2019-02-17T12:24:28.318Z,12.47
2019-02-17T12:26:59.296Z,12.47
2019-02-17T12:29:30.294Z,11.60
2019-02-17T12:31:57.836Z,11.43
2019-02-17T12:34:24.249Z,11.90
2019-02-17T12:36:50.468Z,12.10
2019-02-17T12:39:16.803Z,11.10
2019-02-17T12:41:43.227Z,12.83
2019-02-17T12:44:09.457Z,11.27
2019-02-17T12:46:35.771Z,11.53
2019-02-17T12:49:02.007Z,9.57
2019-02-17T12:51:28.278Z,10.00
2019-02-17T12:53:54.602Z,9.70
2019-02-17T12:56:20.844Z,10.57
2019-02-17T12:58:47.061Z,8.67
2019-02-17T13:01:13.658Z,13.53
2019-02-17T13:03:40.220Z,11.13
2019-02-17T13:06:06.498Z,10.90
2019-02-17T13:08:32.792Z,10.07
2019-02-17T13:10:59.085Z,9.10
2019-02-17T13:13:25.340Z,9.20
2019-02-17T13:15:51.697Z,11.27
2019-02-17T13:18:17.994Z,10.50
2019-02-17T13:20:44.347Z,9.20
2019-02-17T13:23:10.697Z,8.70
2019-02-17T13:25:38.305Z,7.67
2019-02-17T13:28:04.831Z,7.73
2019-02-17T13:30:31.136Z,8.47
2019-02-17T13:32:57.459Z,8.73
2019-02-17T13:35:23.799Z,8.10
2019-02-17T13:37:50.207Z,8.37
2019-02-17T13:40:16.627Z,8.07
2019-02-17T13:42:42.967Z,7.17
2019-02-17T13:45:13.323Z,8.30
2019-02-17T13:47:39.530Z,14.13
2019-02-17T13:50:08.383Z,8.00
2019-02-17T13:52:34.731Z,9.63
2019-02-17T13:55:00.977Z,7.27
2019-02-17T13:57:27.368Z,8.10
2019-02-17T13:59:53.588Z,9.03
2019-02-17T14:02:19.842Z,8.20
2019-02-17T14:04:46.157Z,8.60
2019-02-17T14:07:12.412Z,7.70
2019-02-17T14:09:38.624Z,7.20
2019-02-17T14:12:04.831Z,8.00
2019-02-17T14:14:31.064Z,7.57
2019-02-17T14:16:57.298Z,6.97
2019-02-17T14:19:23.727Z,8.90
2019-02-17T14:21:49.959Z,6.93
2019-02-17T14:24:16.162Z,8.57
2019-02-17T14:26:42.388Z,7.70
2019-02-17T14:29:08.609Z,8.77
2019-02-17T14:31:34.911Z,6.93
2019-02-17T14:34:01.162Z,8.03
2019-02-17T14:36:27.483Z,12.40
2019-02-17T14:38:53.691Z,10.03
2019-02-17T14:41:19.996Z,7.07
2019-02-17T14:43:46.221Z,6.70
2019-02-17T14:46:12.463Z,6.67
2019-02-17T14:48:38.660Z,7.10
2019-02-17T14:51:04.976Z,5.77
2019-02-17T14:53:31.303Z,6.37
2019-02-17T14:55:57.706Z,7.43
2019-02-17T14:58:24.050Z,7.40
2019-02-17T15:00:50.650Z,6.17
2019-02-17T15:03:17.184Z,7.00
2019-02-17T15:05:43.831Z,8.93
2019-02-17T15:08:10.264Z,9.90
2019-02-17T15:10:36.730Z,6.30
2019-02-17T15:13:03.301Z,6.70
2019-02-17T15:15:29.818Z,7.07
2019-02-17T15:17:56.095Z,6.60
2019-02-17T15:20:23.873Z,6.30
2019-02-17T15:22:50.316Z,7.37
2019-02-17T15:25:16.737Z,10.20
2019-02-17T15:27:43.032Z,8.23
2019-02-17T15:30:11.841Z,9.53
2019-02-17T15:32:38.422Z,7.43
2019-02-17T15:35:05.330Z,6.93
2019-02-17T15:37:31.826Z,7.10
2019-02-17T15:39:58.276Z,6.40
2019-02-17T15:42:24.676Z,6.20
2019-02-17T15:44:51.159Z,6.80
2019-02-17T15:47:19.263Z,7.53
2019-02-17T15:49:46.022Z,6.53
2019-02-17T15:52:12.315Z,7.30
2019-02-17T15:54:38.637Z,7.20
2019-02-17T15:57:04.875Z,8.43
2019-02-17T15:59:31.279Z,8.07
2019-02-17T16:01:57.540Z,5.73
2019-02-17T16:04:28.472Z,6.93
2019-02-17T16:06:52.035Z,8.93
2019-02-17T16:09:18.361Z,6.20
2019-02-17T16:11:44.592Z,6.90
2019-02-17T16:14:10.911Z,7.60
2019-02-17T16:16:37.151Z,6.20
2019-02-17T16:19:03.609Z,7.70
2019-02-17T16:21:29.813Z,7.10
2019-02-17T16:23:56.128Z,10.10
2019-02-17T16:26:22.580Z,8.20
2019-02-17T16:28:48.808Z,7.10
2019-02-17T16:31:15.119Z,10.07
2019-02-17T16:33:41.391Z,5.43
2019-02-17T16:36:07.710Z,7.83
2019-02-17T16:38:33.976Z,6.37
2019-02-17T16:41:00.181Z,6.83
2019-02-17T16:43:26.597Z,7.00
2019-02-17T16:45:52.799Z,7.00
2019-02-17T16:48:19.050Z,8.50
2019-02-17T16:50:45.280Z,7.60
2019-02-17T16:53:11.738Z,7.73
2019-02-17T16:55:38.072Z,8.40
2019-02-17T16:58:04.412Z,6.80
2019-02-17T17:00:30.804Z,6.80
2019-02-17T17:02:57.122Z,6.70
2019-02-17T17:05:24.165Z,7.13
2019-02-17T17:07:50.712Z,7.50
2019-02-17T17:10:17.026Z,6.83
2019-02-17T17:12:43.340Z,7.37
2019-02-17T17:15:10.036Z,6.50
2019-02-17T17:17:36.499Z,7.90
2019-02-17T17:20:06.317Z,7.73
2019-02-17T17:22:32.695Z,8.60
2019-02-17T17:24:58.979Z,7.20
2019-02-17T17:27:25.368Z,9.03
2019-02-17T17:29:51.581Z,6.83
2019-02-17T17:32:17.829Z,7.80
2019-02-17T17:34:44.176Z,6.43
2019-02-17T17:37:10.396Z,6.87
2019-02-17T17:39:36.667Z,7.37
2019-02-17T17:42:03.013Z,7.70
2019-02-17T17:44:29.362Z,6.93
2019-02-17T17:46:55.688Z,8.90
2019-02-17T17:49:21.980Z,7.20
2019-02-17T17:51:48.279Z,7.00
2019-02-17T17:54:14.633Z,9.07
2019-02-17T17:56:41.014Z,7.70
2019-02-17T17:59:07.343Z,7.00
2019-02-17T18:01:33.558Z,8.33
2019-02-17T18:03:59.832Z,7.50
2019-02-17T18:06:26.160Z,6.97
2019-02-17T18:08:52.350Z,7.90
2019-02-17T18:11:18.745Z,7.53
2019-02-17T18:13:45.010Z,7.43
2019-02-17T18:16:11.234Z,6.27
2019-02-17T18:18:37.466Z,7.43
2019-02-17T18:21:04.001Z,9.60
2019-02-17T18:23:30.280Z,10.57
2019-02-17T18:25:56.569Z,6.83
2019-02-17T18:28:22.910Z,7.57
2019-02-17T18:30:49.149Z,7.67
2019-02-17T18:33:15.499Z,8.60
2019-02-17T18:35:41.862Z,8.97
2019-02-17T18:38:08.117Z,8.03
2019-02-17T18:40:44.483Z,7.60
2019-02-17T18:43:02.716Z,7.83
2019-02-17T18:45:29.039Z,9.63
2019-02-17T18:47:55.248Z,6.90
2019-02-17T18:50:22.102Z,7.73
2019-02-17T18:52:48.460Z,9.03
2019-02-17T18:55:14.768Z,7.40
2019-02-17T18:57:49.385Z,8.60
2019-02-17T19:00:20.894Z,7.33
2019-02-17T19:02:47.217Z,8.60
2019-02-17T19:05:13.752Z,10.00
2019-02-17T19:07:40.175Z,8.90
2019-02-17T19:10:11.926Z,9.10
2019-02-17T19:12:38.199Z,13.60
2019-02-17T19:15:07.870Z,13.80
2019-02-17T19:17:34.236Z,13.10
2019-02-17T19:20:00.673Z,12.77
2019-02-17T19:22:27.106Z,11.13
2019-02-17T19:24:53.372Z,12.07
2019-02-17T19:27:19.740Z,9.30
2019-02-17T19:29:46.061Z,9.10
2019-02-17T19:32:12.332Z,10.83
2019-02-17T19:34:38.689Z,11.23
2019-02-17T19:37:05.037Z,8.90
2019-02-17T19:39:31.383Z,13.13
2019-02-17T19:41:57.613Z,9.50
2019-02-17T19:44:23.992Z,9.00
2019-02-17T19:46:50.385Z,10.83
2019-02-17T19:49:16.774Z,8.80
2019-02-17T19:51:43.113Z,9.20
2019-02-17T19:54:09.554Z,10.00
2019-02-17T19:56:35.913Z,9.20
2019-02-17T19:59:02.297Z,9.93
2019-02-17T20:01:28.731Z,10.30
2019-02-17T20:03:59.943Z,9.10
2019-02-17T20:06:26.323Z,9.90
2019-02-17T20:08:52.768Z,10.20
2019-02-17T20:11:19.079Z,9.57
2019-02-17T20:13:45.454Z,11.07
2019-02-17T20:16:11.896Z,10.10
2019-02-17T20:18:38.212Z,11.33
2019-02-17T20:21:04.564Z,9.00
2019-02-17T20:23:30.894Z,10.43
2019-02-17T20:25:57.981Z,13.93
2019-02-17T20:28:32.640Z,10.73
2019-02-17T20:30:52.544Z,9.60
2019-02-17T20:33:19.084Z,12.70
2019-02-17T20:35:45.533Z,14.60
2019-02-17T20:38:11.788Z,13.73
2019-02-17T20:40:38.205Z,10.30
2019-02-17T20:43:04.563Z,12.47
2019-02-17T20:45:30.870Z,8.70
2019-02-17T20:47:57.287Z,9.17
2019-02-17T20:50:23.627Z,9.87
2019-02-17T20:52:50.040Z,9.77
2019-02-17T20:55:16.570Z,9.47
2019-02-17T20:57:42.927Z,9.83
2019-02-17T21:00:13.915Z,10.10
2019-02-17T21:02:40.213Z,9.80
2019-02-17T21:05:08.052Z,13.57
2019-02-17T21:07:34.379Z,11.33
2019-02-17T21:10:00.595Z,16.00
2019-02-17T21:12:27.185Z,12.53
2019-02-17T21:14:53.437Z,11.87
2019-02-17T21:17:19.876Z,10.10
2019-02-17T21:19:46.252Z,10.90
2019-02-17T21:22:12.559Z,12.70
2019-02-17T21:24:40.087Z,10.33
2019-02-17T21:27:06.307Z,12.07
2019-02-17T21:29:32.843Z,9.87
2019-02-17T21:31:59.072Z,11.83
2019-02-17T21:34:25.350Z,11.43
2019-02-17T21:36:51.694Z,12.47
2019-02-17T21:39:17.909Z,13.33
2019-02-17T21:41:44.273Z,11.03
2019-02-17T21:44:10.502Z,13.43
2019-02-17T21:46:36.715Z,10.97
2019-02-17T21:49:03.015Z,9.77
2019-02-17T21:51:29.288Z,11.00
2019-02-17T21:53:55.531Z,12.13
2019-02-17T21:56:21.808Z,12.40
2019-02-17T21:58:49.507Z,10.07
2019-02-17T22:01:15.968Z,9.43
2019-02-17T22:03:42.203Z,12.90
2019-02-17T22:06:08.533Z,9.57
2019-02-17T22:08:34.916Z,13.83
2019-02-17T22:11:01.347Z,10.50
2019-02-17T22:13:27.767Z,9.33
2019-02-17T22:15:53.962Z,9.50
2019-02-17T22:18:20.287Z,10.03
2019-02-17T22:20:46.484Z,10.00
2019-02-17T22:23:12.804Z,9.80
2019-02-17T22:25:39.168Z,11.83
2019-02-17T22:28:05.541Z,11.07
2019-02-17T22:30:31.781Z,10.27
2019-02-17T22:32:58.084Z,10.17
2019-02-17T22:35:24.344Z,10.47
2019-02-17T22:37:50.584Z,12.83
2019-02-17T22:40:16.794Z,10.30
2019-02-17T22:42:43.158Z,10.67
2019-02-17T22:45:10.464Z,8.80
2019-02-17T22:47:36.800Z,9.83
2019-02-17T22:50:07.539Z,11.40
2019-02-17T22:52:33.952Z,8.70
2019-02-17T22:55:00.311Z,9.80
2019-02-17T22:57:26.495Z,10.27
2019-02-17T22:59:52.747Z,14.80
2019-02-17T23:02:19.401Z,10.47
2019-02-17T23:04:45.800Z,9.60
2019-02-17T23:07:12.110Z,9.03
2019-02-17T23:09:38.453Z,12.10
2019-02-17T23:12:04.995Z,8.00
2019-02-17T23:14:31.299Z,9.63
2019-02-17T23:16:57.528Z,9.53
2019-02-17T23:19:23.718Z,9.20
2019-02-17T23:21:50.027Z,9.83
2019-02-17T23:24:16.946Z,9.27
2019-02-17T23:26:43.277Z,12.93
2019-02-17T23:29:09.484Z,8.33
2019-02-17T23:31:35.779Z,8.77
2019-02-17T23:34:02.004Z,8.93
2019-02-17T23:36:28.354Z,11.17
2019-02-17T23:38:54.560Z,8.87
2019-02-17T23:41:20.763Z,9.30
2019-02-17T23:43:46.959Z,10.23
2019-02-17T23:46:13.162Z,9.37
2019-02-17T23:48:39.377Z,8.93
2019-02-17T23:51:05.695Z,9.57
2019-02-17T23:53:32.024Z,9.00
2019-02-17T23:55:58.215Z,8.93
2019-02-17T23:58:24.452Z,10.07
